Athens, Illinois
Current Conditions -  °F | °C
As of 4:52 PM on Wednesday 22 Oct 2014 (Local Time) from KSPI Reporting Station
Clear Clear  
Wind Chill: 17°   Ceiling: Unl
Heat Index: 17°   Visibility: 10mi
Dew Point:   Wind: 5mph
Humidity: 43%   Direction: 110°ESE
Pressure: 30.25"   Gusts: NA
Location:  39.96°N, 89.72°W
Report Text: KSPI 222152Z 11004KT 10SM CLR 17/04 A3025 RMK AO2 SLP243 T01670039
Loading
Personal Weather Stations






























Interactive Weather Map
Tropical Storm Tracking
New forecast layout! Learn more

10-Day Weather Forecast

Advertisements
Track Severe Weather on mobile